Time;durP1;ratioP1;P1;durP2;ratioP2;P2;SDS_P1;SDS_P2;PMS_P1;PMS_P2;Temp;Humidity;BMP_temperature;BMP_pressure;BME280_temperature;BME280_humidity;BME280_pressure;Samples;Min_cycle;Max_cycle;Signal;HPM_P1;HPM_P2
2021/04/20 00:01:20;;;;;;;29.23;19.80;;;13.00;73.00;;;;;;4986435;28;20043;-93
2021/04/20 00:03:47;;;;;;;30.23;19.63;;;12.90;73.10;;;;;;4985735;28;20026;-93
2021/04/20 00:06:13;;;;;;;29.77;20.77;;;12.90;73.20;;;;;;4985334;28;20098;-93
2021/04/20 00:08:39;;;;;;;28.33;19.65;;;12.90;73.30;;;;;;4985279;28;20011;-94
2021/04/20 00:11:06;;;;;;;31.38;20.80;;;12.80;73.40;;;;;;4985484;28;20018;-93
2021/04/20 00:13:32;;;;;;;30.23;20.23;;;12.80;73.50;;;;;;4985436;28;20037;-93
2021/04/20 00:15:58;;;;;;;29.38;19.77;;;12.70;73.60;;;;;;4985686;28;20031;-94
2021/04/20 00:18:24;;;;;;;28.95;19.50;;;12.70;73.60;;;;;;4985439;28;20022;-93
2021/04/20 00:20:50;;;;;;;30.25;21.27;;;12.70;73.60;;;;;;4985030;28;20015;-93
2021/04/20 00:23:15;;;;;;;30.40;20.35;;;12.70;73.70;;;;;;4985357;28;20015;-94
2021/04/20 00:25:41;;;;;;;30.67;20.33;;;12.60;73.80;;;;;;4985254;28;20037;-94
2021/04/20 00:28:07;;;;;;;31.45;21.23;;;12.60;74.00;;;;;;4984976;28;20023;-94
2021/04/20 00:30:34;;;;;;;31.70;22.17;;;12.60;74.00;;;;;;5000842;28;20119;-93
2021/04/20 00:32:59;;;;;;;29.10;20.60;;;12.60;74.00;;;;;;5001142;28;20042;-93
2021/04/20 00:35:25;;;;;;;31.95;20.85;;;12.60;74.20;;;;;;5001551;28;20015;-93
2021/04/20 00:37:51;;;;;;;29.52;19.17;;;12.50;74.20;;;;;;5001682;28;20019;-93
2021/04/20 00:40:18;;;;;;;30.83;20.20;;;12.50;74.30;;;;;;5001893;28;20015;-93
2021/04/20 00:42:56;;;;;;;30.27;19.95;;;12.50;74.40;;;;;;4985491;28;20011;-93
2021/04/20 00:45:28;;;;;;;29.98;20.52;;;12.40;74.40;;;;;;5001293;28;20022;-93
2021/04/20 00:47:54;;;;;;;32.83;20.95;;;12.40;74.50;;;;;;5001290;28;20039;-93
2021/04/20 00:50:29;;;;;;;29.77;20.17;;;12.40;74.50;;;;;;5001654;28;20013;-93
2021/04/20 00:52:55;;;;;;;29.73;20.67;;;12.40;74.60;;;;;;5001683;28;20029;-93
2021/04/20 00:55:21;;;;;;;32.15;20.40;;;12.40;74.70;;;;;;5001520;28;20019;-93
2021/04/20 00:57:47;;;;;;;30.30;19.85;;;12.30;74.80;;;;;;5001186;28;20083;-93
2021/04/20 01:00:22;;;;;;;31.48;20.70;;;12.30;75.00;;;;;;5001515;28;20022;-93
2021/04/20 01:02:48;;;;;;;31.67;20.40;;;12.20;75.10;;;;;;5001179;28;20023;-92
2021/04/20 01:05:17;;;;;;;31.42;21.08;;;12.20;75.20;;;;;;4999912;28;20022;-93
2021/04/20 01:07:43;;;;;;;32.55;20.48;;;12.20;75.40;;;;;;4997354;28;20041;-92
2021/04/20 01:10:11;;;;;;;33.70;22.63;;;12.10;75.40;;;;;;4995727;28;20034;-94
2021/04/20 01:12:38;;;;;;;32.95;20.58;;;12.10;75.40;;;;;;4997769;28;20058;-93
2021/04/20 01:15:08;;;;;;;31.75;19.83;;;12.10;75.60;;;;;;4998026;28;20019;-94
2021/04/20 01:17:35;;;;;;;32.38;21.23;;;12.10;75.60;;;;;;4983826;28;20018;-92
2021/04/20 01:20:04;;;;;;;31.75;21.17;;;12.10;75.70;;;;;;5000753;28;20039;-94
2021/04/20 01:22:33;;;;;;;30.30;20.27;;;12.00;76.40;;;;;;5000147;28;20031;-92
2021/04/20 01:24:59;;;;;;;32.80;21.05;;;12.00;75.80;;;;;;4997686;28;20058;-93
2021/04/20 01:27:26;;;;;;;32.78;21.55;;;12.00;75.70;;;;;;4981193;28;20075;-93
2021/04/20 01:29:56;;;;;;;34.95;20.50;;;12.00;75.80;;;;;;4997000;28;20047;-94
2021/04/20 01:32:24;;;;;;;31.73;20.25;;;11.90;75.90;;;;;;4996627;28;20033;-93
2021/04/20 01:34:49;;;;;;;30.92;20.55;;;11.90;76.00;;;;;;4980787;28;20094;-93
2021/04/20 01:37:15;;;;;;;30.73;20.17;;;11.90;76.00;;;;;;4998081;28;20026;-93
2021/04/20 01:39:48;;;;;;;30.23;20.10;;;11.90;76.10;;;;;;4998949;28;20011;-92
2021/04/20 01:42:14;;;;;;;30.63;20.48;;;11.90;76.10;;;;;;4998372;28;20059;-93
2021/04/20 01:44:41;;;;;;;31.25;20.23;;;11.80;76.20;;;;;;4998107;28;20014;-93
2021/04/20 01:47:08;;;;;;;27.83;19.05;;;11.80;76.30;;;;;;4980947;28;20034;-93
2021/04/20 01:49:34;;;;;;;31.13;19.88;;;11.80;76.30;;;;;;4997292;28;20006;-93
2021/04/20 01:52:00;;;;;;;29.90;20.33;;;11.80;76.30;;;;;;4996854;28;20046;-93
2021/04/20 01:54:26;;;;;;;30.48;20.65;;;11.80;76.40;;;;;;4996728;28;20026;-94
2021/04/20 01:56:52;;;;;;;31.98;20.65;;;11.70;76.30;;;;;;4997795;28;20090;-93
2021/04/20 01:59:19;;;;;;;30.70;19.67;;;11.70;76.40;;;;;;4980924;28;20066;-92
2021/04/20 02:01:46;;;;;;;30.77;21.42;;;11.70;76.50;;;;;;4996762;28;20030;-93
2021/04/20 02:04:11;;;;;;;31.73;20.70;;;11.60;76.50;;;;;;4997348;28;20007;-93
2021/04/20 02:06:37;;;;;;;31.23;21.08;;;11.60;76.60;;;;;;4996911;28;20026;-93
2021/04/20 02:09:05;;;;;;;30.55;20.17;;;11.60;76.80;;;;;;4998461;28;20015;-94
2021/04/20 02:11:32;;;;;;;35.00;21.13;;;11.60;76.90;;;;;;4997634;28;20049;-94
2021/04/20 02:13:58;;;;;;;32.58;22.00;;;11.50;76.90;;;;;;4995589;28;20034;-92
2021/04/20 02:16:25;;;;;;;30.25;20.50;;;11.50;77.10;;;;;;4994544;28;20094;-93
2021/04/20 02:18:57;;;;;;;31.00;20.45;;;11.50;77.10;;;;;;4994323;28;20465;-94
2021/04/20 02:21:24;;;;;;;30.80;21.20;;;11.30;77.20;;;;;;4977682;28;20030;-94
2021/04/20 02:23:50;;;;;;;31.20;20.83;;;11.30;77.40;;;;;;4978864;28;20014;-94
2021/04/20 02:26:23;;;;;;;32.58;20.75;;;11.20;77.60;;;;;;4994352;28;20027;-93
2021/04/20 02:28:49;;;;;;;32.15;20.77;;;11.20;77.70;;;;;;4993565;28;20062;-93
2021/04/20 02:31:14;;;;;;;32.22;22.38;;;11.20;77.60;;;;;;4993814;28;20034;-93
2021/04/20 02:33:42;;;;;;;32.72;22.30;;;11.20;77.60;;;;;;4992927;28;20022;-93
2021/04/20 02:36:08;;;;;;;31.10;20.92;;;11.30;77.70;;;;;;4978428;28;20030;-91
2021/04/20 02:38:36;;;;;;;33.47;21.00;;;11.30;77.60;;;;;;4999659;28;20019;-93
2021/04/20 02:41:03;;;;;;;32.35;22.05;;;11.30;77.60;;;;;;4999659;28;20019;-92
2021/04/20 02:43:29;;;;;;;31.83;21.52;;;11.30;77.60;;;;;;4983540;28;20011;-92
2021/04/20 02:45:59;;;;;;;31.40;21.15;;;11.20;77.70;;;;;;4997150;28;20035;-94
2021/04/20 02:48:27;;;;;;;31.85;20.42;;;11.20;77.70;;;;;;4994183;28;20035;-93
2021/04/20 02:50:54;;;;;;;32.55;21.88;;;11.20;77.90;;;;;;4995314;28;20026;-94
2021/04/20 02:53:20;;;;;;;32.83;21.80;;;11.20;77.80;;;;;;4979186;28;20031;-94
2021/04/20 02:55:46;;;;;;;32.10;21.30;;;11.30;77.70;;;;;;4994978;28;20027;-93
2021/04/20 02:58:17;;;;;;;36.63;22.88;;;11.30;77.60;;;;;;4994711;28;20034;-93
2021/04/20 03:00:45;;;;;;;34.13;23.23;;;11.40;77.60;;;;;;4978912;28;20030;-93
2021/04/20 03:03:15;;;;;;;34.15;23.48;;;11.40;77.50;;;;;;4995336;28;20046;-93
2021/04/20 03:05:41;;;;;;;32.80;22.52;;;11.30;77.60;;;;;;4994437;28;20030;-93
2021/04/20 03:08:07;;;;;;;33.15;22.75;;;11.30;77.60;;;;;;4994587;28;20030;-93
2021/04/20 03:10:37;;;;;;;35.08;23.58;;;11.30;77.70;;;;;;4995211;28;20039;-93
2021/04/20 03:13:03;;;;;;;34.97;23.08;;;11.20;78.50;;;;;;4994750;28;20029;-93
2021/04/20 03:15:29;;;;;;;34.10;24.17;;;11.20;77.80;;;;;;4995577;28;20038;-94
2021/04/20 03:17:55;;;;;;;33.63;23.10;;;11.20;77.90;;;;;;4978481;28;20090;-94
2021/04/20 03:20:21;;;;;;;34.55;23.10;;;11.20;78.00;;;;;;4995519;28;20026;-93
2021/04/20 03:22:48;;;;;;;33.25;23.17;;;11.20;78.10;;;;;;4998820;28;20023;-91
2021/04/20 03:25:35;;;;;;;33.20;22.92;;;11.20;78.00;;;;;;4998781;28;20018;-93
2021/04/20 03:28:01;;;;;;;36.15;24.52;;;11.30;77.90;;;;;;4994653;28;20059;-94
2021/04/20 03:30:32;;;;;;;38.60;24.40;;;11.30;77.90;;;;;;4977713;28;20039;-93
2021/04/20 03:33:24;;;;;;;37.15;23.85;;;11.30;77.80;;;;;;4979415;28;20019;-93
2021/04/20 03:35:58;;;;;;;34.97;23.98;;;11.30;77.80;;;;;;4981406;28;20015;-92
2021/04/20 03:38:35;;;;;;;35.85;24.55;;;11.20;77.80;;;;;;4981095;28;20027;-92
2021/04/20 03:41:09;;;;;;;35.70;23.77;;;11.20;77.80;;;;;;4982113;28;20417;-93
2021/04/20 03:43:36;;;;;;;37.13;24.63;;;11.20;77.90;;;;;;4983327;28;20047;-93
2021/04/20 03:46:12;;;;;;;34.20;23.15;;;11.20;77.90;;;;;;4981573;28;20023;-92
2021/04/20 03:48:44;;;;;;;34.35;23.67;;;11.20;78.00;;;;;;4980485;28;20026;-92
2021/04/20 03:51:13;;;;;;;36.28;24.80;;;11.20;78.00;;;;;;4981861;28;20066;-93
2021/04/20 03:53:42;;;;;;;35.63;23.38;;;11.20;78.10;;;;;;4982727;28;20003;-92
2021/04/20 03:56:09;;;;;;;36.63;25.38;;;11.10;78.00;;;;;;4982001;28;20034;-93
2021/04/20 03:58:37;;;;;;;35.60;23.33;;;11.10;78.10;;;;;;4981939;28;20027;-93
2021/04/20 04:01:07;;;;;;;36.63;24.02;;;11.10;78.30;;;;;;4983926;28;20007;-92
2021/04/20 04:03:35;;;;;;;35.63;23.48;;;11.00;78.40;;;;;;4984811;28;20018;-93
2021/04/20 04:06:01;;;;;;;36.55;24.05;;;11.00;78.50;;;;;;4984122;28;20035;-92
2021/04/20 04:08:28;;;;;;;37.40;24.30;;;11.00;78.60;;;;;;4982218;28;20058;-93
2021/04/20 04:10:56;;;;;;;34.60;23.58;;;10.90;78.50;;;;;;4982545;28;20042;-93
2021/04/20 04:13:26;;;;;;;38.13;25.08;;;10.90;79.30;;;;;;4982031;28;20057;-92
2021/04/20 04:15:55;;;;;;;;;;;10.90;78.60;;;;;;4982384;28;20027;-93
2021/04/20 04:18:23;;;;;;;37.53;24.88;;;10.90;78.50;;;;;;4981955;28;19906;-93
2021/04/20 04:20:48;;;;;;;38.25;25.40;;;10.90;78.60;;;;;;4982786;28;20018;-93
2021/04/20 04:23:19;;;;;;;40.85;25.00;;;10.90;78.60;;;;;;4983072;28;20019;-93
2021/04/20 04:26:00;;;;;;;38.13;25.02;;;10.90;78.70;;;;;;4982282;28;20039;-93
2021/04/20 04:28:27;;;;;;;35.65;24.15;;;10.90;78.70;;;;;;4982279;28;20062;-92
2021/04/20 04:30:55;;;;;;;37.88;24.50;;;10.90;78.70;;;;;;4984829;28;20038;-92
2021/04/20 04:33:21;;;;;;;39.70;24.20;;;10.90;78.70;;;;;;4984000;28;20033;-92
2021/04/20 04:35:49;;;;;;;35.50;24.98;;;10.90;78.80;;;;;;4983113;28;20035;-93
2021/04/20 04:38:22;;;;;;;37.08;24.85;;;10.80;78.70;;;;;;4982429;28;20015;-94
2021/04/20 04:40:48;;;;;;;35.28;24.05;;;10.80;78.80;;;;;;4982526;28;20027;-94
2021/04/20 04:43:15;;;;;;;39.45;25.70;;;10.90;78.80;;;;;;4980704;28;20081;-92
2021/04/20 04:45:41;;;;;;;37.85;25.45;;;10.90;78.90;;;;;;4967150;28;20102;-89
2021/04/20 04:48:09;;;;;;;35.30;24.05;;;10.90;78.90;;;;;;4963119;28;20061;-81
2021/04/20 04:50:37;;;;;;;37.55;25.38;;;10.80;78.80;;;;;;4982029;28;20019;-80
2021/04/20 04:53:03;;;;;;;36.85;24.92;;;10.90;78.90;;;;;;4978084;28;20022;-80
2021/04/20 04:55:29;;;;;;;36.13;24.58;;;10.80;78.80;;;;;;4959748;28;20062;-80
2021/04/20 04:57:56;;;;;;;35.67;24.98;;;10.80;78.90;;;;;;4977427;28;20027;-79
2021/04/20 05:00:22;;;;;;;38.17;24.63;;;10.80;78.90;;;;;;4959872;28;20026;-79
2021/04/20 05:02:49;;;;;;;40.47;27.45;;;10.80;78.90;;;;;;4960996;28;20066;-81
2021/04/20 05:05:16;;;;;;;39.90;26.63;;;10.80;78.80;;;;;;4960786;28;20436;-79
2021/04/20 05:07:42;;;;;;;37.80;25.65;;;10.80;78.90;;;;;;4963927;28;20161;-79
2021/04/20 05:10:13;;;;;;;40.72;27.63;;;10.80;78.80;;;;;;4961193;28;20027;-80
2021/04/20 05:12:39;;;;;;;38.60;26.35;;;10.80;78.80;;;;;;4978236;28;20034;-80
2021/04/20 05:15:13;;;;;;;39.30;26.30;;;10.80;78.90;;;;;;4960620;28;20023;-80
2021/04/20 05:17:40;;;;;;;39.22;24.85;;;10.80;78.90;;;;;;4963282;28;20034;-80
2021/04/20 05:20:11;;;;;;;38.13;26.73;;;10.80;78.90;;;;;;4975902;28;20030;-79
2021/04/20 05:22:36;;;;;;;37.42;24.63;;;10.80;78.80;;;;;;4980345;28;20090;-79
2021/04/20 05:25:10;;;;;;;35.88;24.10;;;10.80;78.70;;;;;;4977615;28;20094;-79
2021/04/20 05:27:35;;;;;;;35.90;24.02;;;10.80;78.90;;;;;;4980501;28;20030;-80
2021/04/20 05:30:04;;;;;;;38.90;24.52;;;10.80;78.90;;;;;;4984070;28;20093;-79
2021/04/20 05:32:31;;;;;;;35.30;23.60;;;10.80;78.90;;;;;;4984560;28;20035;-79
2021/04/20 05:35:00;;;;;;;36.65;23.70;;;10.80;78.90;;;;;;4968767;28;20027;-80
2021/04/20 05:37:46;;;;;;;38.67;24.92;;;10.80;78.90;;;;;;4948619;29;20046;-79
2021/04/20 05:40:15;;;;;;;34.08;23.92;;;10.80;79.00;;;;;;4953570;28;20031;-79
2021/04/20 05:42:41;;;;;;;35.13;24.30;;;10.80;78.90;;;;;;4984239;28;20512;-79
2021/04/20 05:45:09;;;;;;;38.15;24.02;;;10.80;78.90;;;;;;4965913;28;20030;-78
2021/04/20 05:47:47;;;;;;;39.58;24.20;;;10.80;78.90;;;;;;4961773;28;20061;-79
2021/04/20 05:50:27;;;;;;;40.77;25.33;;;10.80;79.30;;;;;;4983173;28;20037;-79
2021/04/20 05:52:52;;;;;;;36.35;24.23;;;10.80;79.00;;;;;;4966754;28;20274;-80
2021/04/20 05:55:19;;;;;;;42.20;27.30;;;10.90;79.10;;;;;;4965156;28;20539;-79
2021/04/20 05:57:48;;;;;;;42.03;27.73;;;10.90;79.00;;;;;;4982897;28;20084;-80
2021/04/20 06:00:15;;;;;;;43.58;29.25;;;11.00;79.10;;;;;;4981104;28;20126;-82
2021/04/20 06:02:42;;;;;;;47.05;29.73;;;11.00;79.10;;;;;;4981128;28;20104;-79
2021/04/20 06:05:15;;;;;;;46.58;30.95;;;11.00;79.00;;;;;;4958766;28;20452;-79
2021/04/20 06:07:50;;;;;;;54.13;30.90;;;11.00;79.00;;;;;;4968307;28;20027;-81
2021/04/20 06:10:16;;;;;;;47.53;31.23;;;11.10;79.10;;;;;;4957981;29;20038;-79
2021/04/20 06:12:43;;;;;;;46.85;30.63;;;11.10;78.90;;;;;;4968705;28;20029;-79
2021/04/20 06:15:10;;;;;;;49.35;31.50;;;11.10;78.90;;;;;;4960585;28;20023;-79
2021/04/20 06:17:38;;;;;;;46.08;30.75;;;11.20;79.00;;;;;;4954244;29;20055;-80
2021/04/20 06:20:07;;;;;;;45.45;31.08;;;11.20;78.90;;;;;;4959907;29;20078;-79
2021/04/20 06:22:34;;;;;;;48.22;32.63;;;11.20;78.80;;;;;;4940413;29;20031;-79
2021/04/20 06:25:00;;;;;;;48.15;32.65;;;11.20;78.80;;;;;;4940283;29;20082;-79
2021/04/20 06:27:27;;;;;;;49.72;32.35;;;11.30;78.90;;;;;;4958540;29;20026;-80
2021/04/20 06:29:53;;;;;;;48.95;32.35;;;11.30;78.90;;;;;;4956822;28;20039;-79
2021/04/20 06:32:19;;;;;;;50.05;33.33;;;11.30;78.90;;;;;;4962487;28;20045;-80
2021/04/20 06:34:45;;;;;;;51.35;31.20;;;11.40;78.90;;;;;;4979295;28;20037;-81
2021/04/20 06:37:11;;;;;;;46.17;29.95;;;11.40;78.80;;;;;;4978828;28;20114;-82
2021/04/20 06:39:38;;;;;;;48.63;30.20;;;11.50;78.70;;;;;;4963145;28;20062;-80
2021/04/20 06:42:08;;;;;;;45.45;31.88;;;11.60;78.50;;;;;;4974904;28;20034;-80
2021/04/20 06:44:45;;;;;;;50.53;32.63;;;11.70;78.30;;;;;;4979605;28;20054;-80
2021/04/20 06:47:15;;;;;;;48.58;31.17;;;11.80;78.30;;;;;;4961539;28;20389;-81
2021/04/20 06:49:50;;;;;;;42.58;30.23;;;11.90;78.00;;;;;;4980351;28;20030;-81
2021/04/20 06:52:31;;;;;;;45.95;30.42;;;12.00;77.90;;;;;;4961302;28;20558;-80
2021/04/20 06:55:11;;;;;;;45.95;31.58;;;12.00;78.00;;;;;;4978550;28;20054;-80
2021/04/20 06:57:59;;;;;;;49.00;32.42;;;12.10;77.70;;;;;;4957976;28;20576;-84
2021/04/20 07:00:27;;;;;;;46.85;32.15;;;12.10;79.50;;;;;;4958202;28;20111;-81
2021/04/20 07:03:04;;;;;;;47.80;31.27;;;12.10;77.70;;;;;;4974111;28;20030;-81
2021/04/20 07:05:46;;;;;;;45.92;30.63;;;12.20;77.50;;;;;;4978071;28;20311;-85
2021/04/20 07:08:19;;;;;;;48.40;32.58;;;12.30;77.30;;;;;;4953393;28;20038;-82
2021/04/20 07:10:47;;;;;;;51.92;32.47;;;12.40;77.30;;;;;;4976929;28;20030;-82
2021/04/20 07:13:18;;;;;;;49.75;34.00;;;12.50;77.10;;;;;;4967390;28;20277;-82
2021/04/20 07:15:56;;;;;;;51.30;34.38;;;12.50;77.00;;;;;;4954781;28;20138;-83
2021/04/20 07:18:57;;;;;;;60.70;35.95;;;12.60;76.70;;;;;;4954661;28;20023;-83
2021/04/20 07:21:50;;;;;;;52.78;34.30;;;12.70;76.90;;;;;;4950992;28;20215;-83
2021/04/20 07:24:21;;;;;;;52.67;34.75;;;12.80;76.50;;;;;;4973775;28;20034;-83
2021/04/20 07:27:12;;;;;;;49.85;35.75;;;12.90;76.30;;;;;;4975759;28;20027;-83
2021/04/20 07:29:38;;;;;;;54.70;35.30;;;13.00;76.30;;;;;;4943876;28;20044;-82
2021/04/20 07:32:11;;;;;;;50.30;33.08;;;13.10;75.90;;;;;;4939674;29;20027;-82
2021/04/20 07:34:59;;;;;;;48.63;32.78;;;13.10;75.80;;;;;;4957350;28;20486;-82
2021/04/20 07:37:46;;;;;;;50.05;32.80;;;13.20;76.00;;;;;;4950440;28;20027;-82
2021/04/20 07:40:32;;;;;;;52.95;33.03;;;13.20;75.40;;;;;;4959297;28;20098;-82
2021/04/20 07:43:11;;;;;;;53.83;32.10;;;13.30;75.80;;;;;;4950536;28;20023;-83
2021/04/20 07:45:44;;;;;;;50.53;31.13;;;13.30;75.30;;;;;;4978384;28;20030;-83
2021/04/20 07:48:20;;;;;;;47.70;31.98;;;13.40;75.40;;;;;;4957569;28;20077;-85
2021/04/20 07:50:53;;;;;;;46.45;31.80;;;13.50;75.20;;;;;;4960505;28;20122;-84
2021/04/20 07:53:33;;;;;;;45.60;28.92;;;13.50;74.80;;;;;;4954735;29;20036;-83
2021/04/20 07:56:04;;;;;;;47.20;29.25;;;13.60;74.60;;;;;;4941303;28;20047;-83
2021/04/20 07:58:37;;;;;;;47.40;29.13;;;13.60;74.40;;;;;;4941361;29;20031;-84
2021/04/20 08:01:18;;;;;;;47.72;28.20;;;13.60;74.20;;;;;;4950640;29;20038;-81
2021/04/20 08:04:00;;;;;;;39.55;26.25;;;13.70;74.10;;;;;;4967124;28;20031;-81
2021/04/20 08:06:29;;;;;;;41.63;24.92;;;13.70;73.70;;;;;;4955882;28;20336;-82
2021/04/20 08:09:00;;;;;;;39.13;25.25;;;13.80;73.60;;;;;;4948051;28;20413;-81
2021/04/20 08:11:32;;;;;;;43.00;27.67;;;13.90;73.30;;;;;;4939287;28;20031;-85
2021/04/20 08:14:26;;;;;;;41.70;25.48;;;13.90;73.10;;;;;;4944727;29;20030;-83
2021/04/20 08:17:02;;;;;;;37.97;20.17;;;14.00;71.50;;;;;;4958753;28;20023;-82
2021/04/20 08:19:36;;;;;;;33.08;18.63;;;14.10;72.40;;;;;;4978143;28;20426;-81
2021/04/20 08:22:04;;;;;;;33.83;19.73;;;14.20;70.20;;;;;;4944221;28;20046;-81
2021/04/20 08:24:36;;;;;;;31.70;19.33;;;14.30;70.60;;;;;;4960353;28;20031;-81
2021/04/20 08:27:07;;;;;;;34.22;19.67;;;14.30;70.80;;;;;;4955208;28;20031;-84
2021/04/20 08:29:35;;;;;;;34.42;19.80;;;14.40;70.80;;;;;;4959019;28;20542;-84
2021/04/20 08:32:10;;;;;;;30.02;16.48;;;14.50;70.60;;;;;;4944411;29;20042;-83
2021/04/20 08:34:41;;;;;;;27.85;15.27;;;14.60;67.50;;;;;;4970513;28;20026;-84
2021/04/20 08:37:23;;;;;;;25.38;13.70;;;14.70;69.90;;;;;;4970985;28;20032;-81
2021/04/20 08:40:12;;;;;;;27.25;14.43;;;14.80;69.40;;;;;;4973465;28;20039;-80
2021/04/20 08:43:16;;;;;;;25.50;14.00;;;14.80;68.80;;;;;;4973242;28;20038;-82
2021/04/20 08:45:49;;;;;;;28.02;14.35;;;14.90;66.60;;;;;;4869128;29;20034;-81
2021/04/20 08:48:22;;;;;;;28.42;14.23;;;15.00;67.40;;;;;;4960549;28;20027;-80
2021/04/20 08:51:04;;;;;;;25.15;13.13;;;15.10;67.90;;;;;;4962267;28;20086;-81
2021/04/20 08:53:41;;;;;;;24.45;12.30;;;15.20;65.50;;;;;;4959112;28;20029;-80
2021/04/20 08:56:21;;;;;;;23.45;12.85;;;15.20;65.60;;;;;;4966857;28;20031;-81
2021/04/20 08:59:05;;;;;;;23.33;12.65;;;15.30;66.10;;;;;;4965036;28;20046;-80
2021/04/20 09:01:43;;;;;;;29.88;11.88;;;15.30;65.20;;;;;;4947152;29;20046;-80
2021/04/20 09:04:45;;;;;;;29.00;11.48;;;15.40;65.90;;;;;;4959181;28;20038;-81
2021/04/20 09:07:55;;;;;;;23.13;11.90;;;15.50;58.20;;;;;;4966362;28;20043;-78
2021/04/20 09:10:36;;;;;;;22.30;11.57;;;15.50;64.70;;;;;;4964570;28;20023;-79
2021/04/20 09:13:16;;;;;;;23.45;11.07;;;15.60;64.20;;;;;;4968690;28;20046;-83
2021/04/20 09:15:47;;;;;;;22.02;11.25;;;15.60;60.50;;;;;;4978460;28;20027;-79
2021/04/20 09:18:19;;;;;;;24.95;10.32;;;15.70;62.50;;;;;;4972441;28;20035;-80
2021/04/20 09:20:56;;;;;;;25.35;11.85;;;15.80;62.10;;;;;;4980759;28;20575;-81
2021/04/20 09:23:49;;;;;;;29.67;10.93;;;15.80;63.40;;;;;;4967133;28;20027;-81
2021/04/20 09:26:38;;;;;;;20.77;9.30;;;15.90;61.70;;;;;;4970726;28;20033;-81
2021/04/20 09:29:17;;;;;;;22.80;8.88;;;16.00;62.40;;;;;;4977875;28;20628;-80
2021/04/20 09:31:58;;;;;;;21.67;10.38;;;16.10;60.10;;;;;;4980855;28;20035;-81
2021/04/20 09:34:39;;;;;;;20.00;8.98;;;16.20;56.30;;;;;;4973415;28;20422;-82
2021/04/20 09:37:06;;;;;;;22.10;9.90;;;16.30;61.40;;;;;;4958442;29;20127;-81
2021/04/20 09:39:40;;;;;;;25.10;9.27;;;16.40;60.00;;;;;;4963232;28;20103;-83
2021/04/20 09:42:08;;;;;;;39.72;10.25;;;16.50;60.40;;;;;;4959356;28;20526;-81
2021/04/20 09:44:43;;;;;;;20.50;8.63;;;16.60;60.80;;;;;;4959140;28;20031;-85
2021/04/20 09:47:15;;;;;;;20.80;9.10;;;16.70;59.60;;;;;;4943810;29;20038;-83
2021/04/20 09:49:49;;;;;;;20.98;9.25;;;16.80;58.40;;;;;;4958405;28;20038;-82
2021/04/20 09:52:18;;;;;;;20.40;8.73;;;16.80;53.20;;;;;;4942663;29;20047;-82
2021/04/20 09:54:55;;;;;;;18.85;7.95;;;16.90;57.40;;;;;;4961395;28;20054;-82
2021/04/20 09:57:26;;;;;;;22.05;9.38;;;16.90;57.50;;;;;;4960531;28;20075;-81
2021/04/20 10:00:04;;;;;;;22.23;9.52;;;17.00;56.90;;;;;;4976936;28;20034;-78
2021/04/20 10:02:48;;;;;;;21.53;9.10;;;17.00;56.40;;;;;;4978654;28;20042;-81
2021/04/20 10:05:40;;;;;;;20.35;8.90;;;17.00;55.20;;;;;;4974758;28;20333;-83
2021/04/20 10:08:43;;;;;;;18.75;8.98;;;17.10;52.30;;;;;;4925576;28;20043;-82
2021/04/20 10:11:19;;;;;;;23.08;9.35;;;17.10;57.40;;;;;;4965665;28;20509;-84
2021/04/20 10:14:11;;;;;;;19.02;9.45;;;17.20;51.80;;;;;;4975862;28;20483;-81
2021/04/20 10:16:52;;;;;;;20.38;9.52;;;17.10;56.50;;;;;;4973878;28;20035;-82
2021/04/20 10:19:27;;;;;;;22.92;9.38;;;17.20;55.70;;;;;;4966473;28;20082;-83
2021/04/20 10:22:21;;;;;;;21.20;10.25;;;17.20;56.50;;;;;;4977531;28;20094;-82
2021/04/20 10:25:10;;;;;;;20.02;9.90;;;17.30;56.60;;;;;;4976453;28;20023;-80
2021/04/20 10:27:36;;;;;;;20.45;10.55;;;17.40;53.40;;;;;;4964894;28;20054;-81
2021/04/20 10:30:28;;;;;;;20.88;10.00;;;17.40;55.50;;;;;;4955942;28;20110;-79
2021/04/20 10:32:54;;;;;;;33.67;10.68;;;17.40;47.40;;;;;;4976622;28;20053;-79
2021/04/20 10:35:40;;;;;;;19.95;9.63;;;17.30;55.30;;;;;;4958193;28;20019;-78
2021/04/20 10:38:14;;;;;;;20.48;8.95;;;17.40;51.20;;;;;;4981875;28;20040;-78
2021/04/20 10:40:44;;;;;;;23.13;9.75;;;17.50;55.90;;;;;;4997758;28;20030;-77
2021/04/20 10:43:22;;;;;;;22.42;9.93;;;17.60;56.10;;;;;;4990069;28;20031;-78
2021/04/20 10:45:48;;;;;;;23.25;8.60;;;17.70;56.30;;;;;;4994034;28;20037;-79
2021/04/20 10:48:20;;;;;;;25.33;8.95;;;17.80;55.70;;;;;;4982659;28;20034;-78
2021/04/20 10:50:49;;;;;;;26.33;9.43;;;17.90;53.20;;;;;;4995204;28;20031;-81
2021/04/20 10:53:37;;;;;;;20.05;8.65;;;18.00;55.30;;;;;;4977909;28;20030;-83
2021/04/20 10:56:05;;;;;;;31.55;9.98;;;18.00;55.50;;;;;;4978394;28;20124;-80
2021/04/20 10:58:32;;;;;;;21.98;9.50;;;18.10;55.40;;;;;;4975986;28;20134;-81
2021/04/20 11:00:58;;;;;;;30.92;9.05;;;18.10;54.70;;;;;;4978005;28;20092;-80
2021/04/20 11:03:28;;;;;;;23.13;8.68;;;18.20;55.10;;;;;;4994603;28;20022;-80
2021/04/20 11:05:55;;;;;;;26.73;9.02;;;18.30;54.30;;;;;;4995640;28;20087;-80
2021/04/20 11:08:44;;;;;;;20.13;8.02;;;18.40;54.10;;;;;;4978130;28;20022;-81
2021/04/20 11:11:19;;;;;;;;;;;18.50;52.80;;;;;;4978480;28;20068;-80
2021/04/20 11:13:44;;;;;;;31.23;8.57;;;18.50;50.00;;;;;;4978722;28;19906;-85
2021/04/20 11:16:12;;;;;;;26.08;9.00;;;18.70;55.10;;;;;;4980547;28;20052;-83
2021/04/20 11:18:43;;;;;;;20.48;8.60;;;18.70;54.70;;;;;;4991088;28;20089;-83
2021/04/20 11:21:15;;;;;;;27.35;8.90;;;18.70;53.90;;;;;;4959778;28;20048;-85
2021/04/20 11:23:53;;;;;;;24.38;7.78;;;18.80;52.00;;;;;;4959970;28;20023;-82
2021/04/20 11:26:23;;;;;;;24.52;7.20;;;18.80;53.90;;;;;;4977390;28;20031;-85
2021/04/20 11:28:54;;;;;;;17.30;7.07;;;18.80;52.80;;;;;;4960625;28;20598;-83
2021/04/20 11:31:23;;;;;;;17.48;8.25;;;18.80;52.40;;;;;;4960142;28;20026;-82
2021/04/20 11:34:13;;;;;;;27.35;8.68;;;18.80;53.80;;;;;;4973813;28;20054;-84
2021/04/20 11:36:52;;;;;;;22.70;8.23;;;18.90;53.30;;;;;;4979728;28;20022;-82
2021/04/20 11:39:25;;;;;;;27.67;8.80;;;18.90;52.80;;;;;;4996664;28;20062;-83
2021/04/20 11:42:27;;;;;;;23.88;9.77;;;19.00;50.70;;;;;;4979509;28;20087;-84
2021/04/20 11:45:04;;;;;;;18.67;8.13;;;19.10;52.90;;;;;;4964225;28;20392;-84
2021/04/20 11:47:31;;;;;;;24.13;7.90;;;19.30;53.20;;;;;;4969715;28;20114;-83
2021/04/20 11:50:12;;;;;;;21.38;7.65;;;19.30;51.90;;;;;;4965338;28;20432;-85
2021/04/20 11:52:39;;;;;;;32.95;8.13;;;19.40;51.90;;;;;;4963021;28;20540;-83
2021/04/20 11:55:08;;;;;;;20.63;7.70;;;19.50;51.90;;;;;;5000560;28;20034;-83
2021/04/20 11:57:35;;;;;;;20.83;8.05;;;19.50;50.90;;;;;;4975990;28;20038;-84
2021/04/20 12:00:04;;;;;;;23.42;8.27;;;19.60;48.70;;;;;;4983294;28;20039;-83
2021/04/20 12:02:30;;;;;;;;;;;19.60;51.60;;;;;;4973383;28;20034;-84
2021/04/20 12:05:10;;;;;;;19.52;8.25;;;19.60;44.30;;;;;;4981127;28;19914;-82
2021/04/20 12:07:38;;;;;;;17.67;8.25;;;19.60;52.80;;;;;;4983859;28;20022;-84
2021/04/20 12:10:06;;;;;;;27.50;9.15;;;19.70;51.80;;;;;;4982371;28;20033;-84
2021/04/20 12:12:35;;;;;;;20.25;8.93;;;19.80;52.00;;;;;;4969598;28;20111;-83
2021/04/20 12:15:03;;;;;;;23.67;8.63;;;19.90;52.10;;;;;;4964561;28;20031;-85
2021/04/20 12:17:38;;;;;;;20.77;8.10;;;20.00;52.00;;;;;;4981145;28;20042;-83
2021/04/20 12:20:09;;;;;;;20.90;8.30;;;20.20;51.30;;;;;;4964256;28;20031;-84
2021/04/20 12:22:36;;;;;;;18.05;8.32;;;20.30;51.10;;;;;;4969605;28;20042;-83
2021/04/20 12:25:03;;;;;;;18.30;7.45;;;20.40;51.20;;;;;;4979396;28;20026;-83
2021/04/20 12:27:30;;;;;;;19.45;7.55;;;20.50;50.80;;;;;;4975623;28;20031;-83
2021/04/20 12:29:57;;;;;;;16.73;6.82;;;20.50;50.50;;;;;;4963287;28;20041;-85
2021/04/20 12:32:25;;;;;;;17.85;6.47;;;20.60;49.50;;;;;;5000130;28;20030;-83
2021/04/20 12:34:58;;;;;;;26.90;7.28;;;20.60;49.90;;;;;;4985000;28;20037;-86
2021/04/20 12:37:29;;;;;;;28.90;7.20;;;20.60;48.40;;;;;;4985664;28;20035;-85
2021/04/20 12:40:09;;;;;;;23.85;6.70;;;20.70;46.20;;;;;;4983409;28;20030;-86
2021/04/20 12:42:39;;;;;;;18.30;7.00;;;20.80;47.90;;;;;;4996744;28;20093;-83
2021/04/20 12:45:20;;;;;;;16.98;6.13;;;20.90;48.40;;;;;;4995173;28;20115;-86
2021/04/20 12:47:47;;;;;;;16.90;6.55;;;20.90;47.90;;;;;;4977811;28;20082;-82
2021/04/20 12:50:19;;;;;;;15.18;5.78;;;20.90;47.60;;;;;;4985563;28;20506;-84
2021/04/20 12:52:45;;;;;;;21.65;6.38;;;21.00;48.40;;;;;;4979928;28;20034;-85
2021/04/20 12:55:22;;;;;;;15.02;5.68;;;21.10;48.30;;;;;;4983305;28;20094;-83